createdAt,value
2019-06-27T00:01:59.818Z,23.70
2019-06-27T00:04:29.100Z,23.80
2019-06-27T00:06:58.416Z,23.90
2019-06-27T00:09:27.682Z,23.90
2019-06-27T00:11:56.925Z,23.90
2019-06-27T00:14:26.165Z,23.70
2019-06-27T00:16:55.444Z,23.60
2019-06-27T00:19:24.748Z,23.60
2019-06-27T00:21:53.988Z,23.70
2019-06-27T00:24:23.332Z,23.60
2019-06-27T00:26:57.035Z,23.50
2019-06-27T00:29:23.536Z,23.50
2019-06-27T00:31:52.849Z,23.50
2019-06-27T00:34:22.139Z,23.40
2019-06-27T00:36:51.379Z,23.50
2019-06-27T00:39:20.633Z,23.50
2019-06-27T00:41:49.886Z,23.50
2019-06-27T00:44:19.164Z,23.50
2019-06-27T00:46:48.461Z,23.60
2019-06-27T00:49:37.070Z,23.30
2019-06-27T00:52:06.505Z,23.20
2019-06-27T00:54:35.877Z,23.20
2019-06-27T00:57:25.996Z,23.30
2019-06-27T00:59:55.259Z,23.30
2019-06-27T01:02:24.548Z,23.30
2019-06-27T01:04:53.822Z,23.40
2019-06-27T01:07:42.419Z,23.50
2019-06-27T01:10:12.106Z,23.40
2019-06-27T01:12:41.352Z,23.40
2019-06-27T01:15:11.252Z,23.10
2019-06-27T01:17:40.583Z,23.00
2019-06-27T01:20:10.524Z,23.10
2019-06-27T01:22:39.784Z,23.20
2019-06-27T01:25:09.485Z,23.10
2019-06-27T01:27:38.754Z,23.10
2019-06-27T01:30:08.764Z,23.00
2019-06-27T01:32:38.018Z,23.00
2019-06-27T01:35:07.975Z,23.00
2019-06-27T01:37:37.318Z,23.20
2019-06-27T01:40:07.876Z,23.20
2019-06-27T01:42:37.376Z,23.00
2019-06-27T01:45:12.724Z,23.00
2019-06-27T01:47:42.002Z,23.00
2019-06-27T01:50:11.430Z,22.80
2019-06-27T01:52:40.672Z,22.80
2019-06-27T01:55:10.155Z,22.80
2019-06-27T01:57:46.602Z,22.70
2019-06-27T02:00:26.187Z,22.60
2019-06-27T02:02:55.496Z,22.40
2019-06-27T02:05:24.827Z,22.40
2019-06-27T02:07:54.323Z,22.30
2019-06-27T02:10:23.887Z,22.40
2019-06-27T02:12:53.281Z,22.40
2019-06-27T02:15:22.860Z,22.60
2019-06-27T02:17:52.193Z,22.70
2019-06-27T02:20:21.723Z,22.80
2019-06-27T02:22:51.026Z,22.60
2019-06-27T02:25:21.432Z,22.50
2019-06-27T02:28:03.054Z,22.40
2019-06-27T02:30:30.600Z,22.50
2019-06-27T02:32:59.829Z,22.50
2019-06-27T02:35:29.096Z,22.60
2019-06-27T02:37:58.400Z,22.60
2019-06-27T02:40:27.717Z,22.60
2019-06-27T02:42:57.237Z,22.50
2019-06-27T02:45:45.902Z,22.50
2019-06-27T02:48:15.177Z,22.50
2019-06-27T02:50:44.408Z,22.50
2019-06-27T02:53:13.677Z,22.50
2019-06-27T02:55:42.993Z,22.40
2019-06-27T02:58:28.848Z,22.30
2019-06-27T03:00:43.211Z,22.40
2019-06-27T03:03:31.794Z,22.50
2019-06-27T03:06:01.220Z,22.60
2019-06-27T03:08:30.621Z,22.60
2019-06-27T03:11:00.096Z,22.60
2019-06-27T03:13:29.401Z,22.40
2019-06-27T03:15:58.830Z,22.30
2019-06-27T03:18:28.128Z,22.10
2019-06-27T03:20:57.540Z,22.10
2019-06-27T03:23:26.848Z,22.10
2019-06-27T03:25:56.335Z,22.10
2019-06-27T03:28:25.581Z,22.10
2019-06-27T03:30:54.904Z,22.20
2019-06-27T03:33:24.412Z,22.10
2019-06-27T03:35:53.931Z,22.10
2019-06-27T03:38:23.284Z,22.10
2019-06-27T03:40:52.612Z,22.10
2019-06-27T03:43:21.876Z,22.20
2019-06-27T03:45:51.132Z,22.10
2019-06-27T03:48:20.564Z,22.20
2019-06-27T03:50:49.809Z,22.20
2019-06-27T03:53:19.125Z,22.20
2019-06-27T03:55:48.631Z,22.30
2019-06-27T03:58:17.906Z,22.30
2019-06-27T04:00:59.788Z,22.30
2019-06-27T04:03:29.208Z,22.30
2019-06-27T04:05:58.465Z,22.40
2019-06-27T04:08:27.729Z,22.40
2019-06-27T04:10:57.061Z,22.10
2019-06-27T04:13:27.819Z,22.10
2019-06-27T04:15:57.051Z,22.10
2019-06-27T04:18:26.311Z,22.20
2019-06-27T04:21:03.096Z,22.20
2019-06-27T04:23:32.404Z,22.20
2019-06-27T04:26:01.665Z,22.10
2019-06-27T04:28:30.989Z,22.10
2019-06-27T04:31:00.309Z,22.20
2019-06-27T04:33:29.581Z,22.10
2019-06-27T04:35:58.845Z,22.00
2019-06-27T04:38:28.120Z,22.20
2019-06-27T04:40:57.365Z,22.30
2019-06-27T04:43:26.622Z,22.30
2019-06-27T04:45:55.854Z,22.30
2019-06-27T04:48:25.141Z,22.30
2019-06-27T04:50:54.503Z,22.20
2019-06-27T04:53:23.757Z,22.20
2019-06-27T04:55:53.019Z,22.20
2019-06-27T04:58:22.260Z,22.10
2019-06-27T05:00:51.594Z,22.00
2019-06-27T05:03:22.559Z,22.10
2019-06-27T05:05:51.957Z,22.20
2019-06-27T05:08:21.230Z,22.10
2019-06-27T05:10:50.472Z,21.90
2019-06-27T05:13:19.847Z,21.90
2019-06-27T05:15:50.265Z,21.80
2019-06-27T05:18:19.536Z,22.00
2019-06-27T05:20:48.788Z,22.00
2019-06-27T05:23:18.028Z,22.10
2019-06-27T05:25:47.280Z,22.10
2019-06-27T05:28:16.527Z,22.10
2019-06-27T05:30:54.540Z,22.10
2019-06-27T05:33:23.788Z,22.10
2019-06-27T05:36:12.451Z,22.00
2019-06-27T05:38:41.702Z,21.90
2019-06-27T05:41:10.928Z,21.90
2019-06-27T05:43:40.179Z,21.90
2019-06-27T05:46:09.413Z,21.90
2019-06-27T05:48:39.779Z,21.80
2019-06-27T05:51:10.694Z,21.90
2019-06-27T05:53:39.942Z,21.90
2019-06-27T05:56:09.234Z,21.90
2019-06-27T05:58:38.592Z,22.00
2019-06-27T06:01:20.084Z,22.10
2019-06-27T06:03:49.365Z,22.20
2019-06-27T06:06:18.611Z,22.00
2019-06-27T06:08:47.930Z,22.00
2019-06-27T06:11:17.207Z,22.10
2019-06-27T06:13:46.443Z,22.20
2019-06-27T06:16:15.696Z,22.40
2019-06-27T06:18:44.959Z,22.30
2019-06-27T06:21:14.277Z,22.20
2019-06-27T06:23:43.587Z,22.00
2019-06-27T06:26:12.831Z,22.00
2019-06-27T06:28:42.248Z,22.10
2019-06-27T06:31:11.567Z,22.00
2019-06-27T06:33:40.894Z,22.20
2019-06-27T06:36:10.127Z,22.10
2019-06-27T06:38:39.368Z,22.30
2019-06-27T06:41:08.631Z,22.40
2019-06-27T06:43:37.873Z,22.30
2019-06-27T06:46:07.136Z,22.40
2019-06-27T06:48:36.368Z,22.50
2019-06-27T06:51:05.713Z,22.50
2019-06-27T06:53:34.950Z,22.30
2019-06-27T06:56:23.612Z,22.00
2019-06-27T06:58:52.868Z,22.00
2019-06-27T07:01:22.170Z,22.10
2019-06-27T07:03:51.436Z,22.10
2019-06-27T07:06:20.654Z,22.20
2019-06-27T07:08:49.917Z,22.20
2019-06-27T07:11:19.163Z,22.10
2019-06-27T07:13:50.492Z,22.10
2019-06-27T07:16:19.752Z,22.20
2019-06-27T07:18:49.029Z,22.10
2019-06-27T07:21:18.336Z,22.10
2019-06-27T07:23:47.606Z,22.10
2019-06-27T07:26:16.892Z,22.10
2019-06-27T07:28:46.190Z,22.00
2019-06-27T07:31:18.144Z,21.80
2019-06-27T07:33:46.463Z,21.80
2019-06-27T07:36:15.690Z,22.00
2019-06-27T07:38:47.312Z,21.90
2019-06-27T07:45:02.371Z,21.90
2019-06-27T07:47:31.670Z,22.00
2019-06-27T07:50:00.968Z,21.90
2019-06-27T07:52:30.319Z,21.90
2019-06-27T07:54:59.654Z,22.00
2019-06-27T07:57:29.018Z,22.20
2019-06-27T07:59:58.348Z,22.20
2019-06-27T08:02:27.611Z,22.20
2019-06-27T08:04:56.910Z,22.30
2019-06-27T08:07:26.144Z,22.40
2019-06-27T08:09:55.418Z,22.50
2019-06-27T08:12:24.711Z,22.60
2019-06-27T08:14:54.017Z,22.70
2019-06-27T08:17:23.349Z,22.80
2019-06-27T08:20:12.575Z,22.90
2019-06-27T08:22:41.880Z,23.00
2019-06-27T08:25:11.459Z,23.10
2019-06-27T08:27:40.695Z,23.10
2019-06-27T08:30:10.398Z,23.00
2019-06-27T08:32:39.780Z,23.00
2019-06-27T08:35:10.140Z,23.20
2019-06-27T08:37:39.471Z,23.30
2019-06-27T08:40:09.445Z,23.60
2019-06-27T08:42:38.765Z,23.90
2019-06-27T08:45:08.871Z,24.00
2019-06-27T08:47:38.168Z,24.10
2019-06-27T08:50:07.978Z,24.10
2019-06-27T08:52:37.231Z,24.30
2019-06-27T08:55:07.424Z,24.60
2019-06-27T08:57:36.711Z,25.00
2019-06-27T09:00:07.446Z,25.40
2019-06-27T09:02:36.731Z,25.40
2019-06-27T09:05:09.110Z,25.90
2019-06-27T09:07:38.432Z,26.40
2019-06-27T09:10:08.283Z,26.90
2019-06-27T09:12:37.543Z,27.20
2019-06-27T09:15:07.881Z,27.40
2019-06-27T09:17:37.270Z,27.70
2019-06-27T09:20:08.490Z,28.40
2019-06-27T09:22:38.050Z,29.30
2019-06-27T09:25:08.256Z,30.40
2019-06-27T09:27:37.740Z,31.40
2019-06-27T09:30:26.415Z,31.80
2019-06-27T09:32:55.658Z,32.40
2019-06-27T09:35:24.991Z,33.30
2019-06-27T09:37:54.290Z,33.90
2019-06-27T09:40:23.844Z,34.40
2019-06-27T09:42:53.147Z,34.50
2019-06-27T09:45:22.875Z,34.90
2019-06-27T09:47:52.125Z,35.30
2019-06-27T09:50:21.878Z,35.60
2019-06-27T09:52:51.218Z,35.90
2019-06-27T09:55:21.507Z,36.30
2019-06-27T09:57:50.908Z,36.40
2019-06-27T10:00:20.798Z,36.70
2019-06-27T10:02:50.040Z,36.70
2019-06-27T10:05:19.347Z,36.60
2019-06-27T10:07:48.690Z,36.00
2019-06-27T10:10:18.051Z,36.10
2019-06-27T10:12:47.370Z,36.60
2019-06-27T10:15:36.023Z,37.10
2019-06-27T10:18:05.393Z,37.10
2019-06-27T10:20:34.658Z,37.30
2019-06-27T10:23:04.022Z,37.30
2019-06-27T10:25:34.044Z,37.20
2019-06-27T10:28:03.322Z,37.10
2019-06-27T10:30:32.772Z,37.10
2019-06-27T10:33:02.064Z,37.20
2019-06-27T10:35:31.372Z,37.30
2019-06-27T10:38:00.727Z,37.20
2019-06-27T10:40:29.993Z,37.10
2019-06-27T10:42:59.299Z,37.40
2019-06-27T10:45:28.580Z,37.80
2019-06-27T10:47:57.813Z,38.00
2019-06-27T10:50:28.117Z,38.20
2019-06-27T10:52:57.385Z,38.20
2019-06-27T10:55:26.768Z,38.30
2019-06-27T10:57:56.023Z,38.80
2019-06-27T11:00:25.433Z,39.00
2019-06-27T11:02:54.774Z,39.00
2019-06-27T11:05:24.020Z,38.90
2019-06-27T11:07:53.344Z,38.90
2019-06-27T11:10:22.597Z,39.00
2019-06-27T11:12:51.957Z,39.10
2019-06-27T11:15:21.336Z,39.10
2019-06-27T11:17:50.594Z,39.00
2019-06-27T11:20:20.090Z,39.30
2019-06-27T11:22:49.429Z,39.20
2019-06-27T11:25:18.743Z,39.80
2019-06-27T11:27:48.019Z,39.90
2019-06-27T11:30:17.644Z,40.00
2019-06-27T11:32:46.894Z,40.10
2019-06-27T11:35:16.270Z,40.00
2019-06-27T11:37:45.498Z,39.90
2019-06-27T11:40:15.412Z,39.80
2019-06-27T11:42:44.697Z,39.80
2019-06-27T11:45:14.567Z,40.00
2019-06-27T11:47:43.799Z,40.20
2019-06-27T11:50:14.186Z,40.00
2019-06-27T11:52:46.882Z,40.10
2019-06-27T11:55:14.922Z,40.40
2019-06-27T11:57:44.146Z,40.20
2019-06-27T12:00:14.864Z,39.80
2019-06-27T12:02:44.279Z,39.80
2019-06-27T12:05:14.176Z,39.90
2019-06-27T12:07:43.408Z,39.80
2019-06-27T12:10:13.629Z,39.20
2019-06-27T12:12:42.951Z,39.20
2019-06-27T12:15:12.539Z,39.40
2019-06-27T12:17:41.786Z,38.70
2019-06-27T12:20:11.456Z,37.30
2019-06-27T12:22:40.809Z,35.70
2019-06-27T12:25:10.387Z,34.20
2019-06-27T12:27:39.699Z,32.90
2019-06-27T12:30:10.299Z,31.80
2019-06-27T12:32:53.021Z,31.20
2019-06-27T12:35:22.621Z,30.90
2019-06-27T12:37:51.852Z,30.50
2019-06-27T12:40:21.278Z,30.00
2019-06-27T12:42:51.340Z,29.50
2019-06-27T12:45:22.733Z,29.40
2019-06-27T12:47:52.062Z,29.50
2019-06-27T12:50:35.564Z,29.60
2019-06-27T12:53:04.920Z,29.60
2019-06-27T12:55:34.240Z,29.50
2019-06-27T12:58:03.505Z,29.40
2019-06-27T13:00:32.795Z,29.40
2019-06-27T13:03:02.064Z,29.40
2019-06-27T13:05:31.403Z,29.40
2019-06-27T13:08:00.635Z,29.40
2019-06-27T13:10:36.525Z,29.20
2019-06-27T13:13:05.833Z,29.20
2019-06-27T13:15:35.083Z,29.20
2019-06-27T13:18:04.404Z,29.30
2019-06-27T13:20:33.690Z,29.20
2019-06-27T13:23:03.010Z,29.20
2019-06-27T13:25:34.271Z,29.20
2019-06-27T13:28:03.383Z,29.40
2019-06-27T13:30:32.707Z,29.40
2019-06-27T13:33:03.105Z,29.40
2019-06-27T13:35:32.888Z,29.50
2019-06-27T13:38:02.247Z,29.50
2019-06-27T13:40:31.581Z,29.60
2019-06-27T13:43:00.850Z,29.70
2019-06-27T13:45:30.137Z,29.70
2019-06-27T13:47:59.436Z,29.80
2019-06-27T13:50:28.843Z,29.80
2019-06-27T13:52:58.258Z,29.90
2019-06-27T13:55:27.628Z,29.90
2019-06-27T13:57:57.811Z,29.90
2019-06-27T14:00:36.482Z,29.90
2019-06-27T14:03:05.877Z,29.80
2019-06-27T14:05:35.145Z,29.90
2019-06-27T14:08:04.617Z,29.90
2019-06-27T14:10:33.926Z,29.90
2019-06-27T14:13:22.542Z,29.90
2019-06-27T14:15:51.799Z,29.80
2019-06-27T14:18:21.075Z,29.80
2019-06-27T14:20:51.660Z,29.80
2019-06-27T14:23:21.028Z,29.90
2019-06-27T14:25:50.259Z,29.90
2019-06-27T14:28:19.528Z,29.90
2019-06-27T14:30:48.796Z,29.70
2019-06-27T14:33:18.036Z,29.50
2019-06-27T14:35:47.323Z,29.50
2019-06-27T14:38:16.550Z,29.60
2019-06-27T14:40:46.029Z,29.50
2019-06-27T14:43:16.379Z,29.60
2019-06-27T14:45:45.640Z,29.80
2019-06-27T14:48:14.890Z,29.70
2019-06-27T14:50:44.164Z,29.80
2019-06-27T14:53:13.468Z,29.90
2019-06-27T14:55:42.843Z,29.90
2019-06-27T14:58:12.172Z,30.00
2019-06-27T15:00:41.444Z,30.00
2019-06-27T15:03:10.713Z,29.90
2019-06-27T15:05:39.945Z,29.80
2019-06-27T15:08:09.189Z,29.80
2019-06-27T15:10:38.445Z,29.80
2019-06-27T15:13:27.044Z,29.70
2019-06-27T15:16:10.696Z,29.70
2019-06-27T15:18:46.702Z,29.60
2019-06-27T15:21:15.980Z,29.80
2019-06-27T15:23:45.231Z,29.70
2019-06-27T15:26:33.914Z,29.70
2019-06-27T15:29:03.234Z,29.60
2019-06-27T15:31:32.517Z,29.60
2019-06-27T15:34:21.179Z,29.70
2019-06-27T15:36:50.518Z,29.60
2019-06-27T15:39:20.253Z,29.80
2019-06-27T15:41:49.496Z,29.90
2019-06-27T15:44:20.756Z,29.90
2019-06-27T15:47:09.087Z,30.00
2019-06-27T15:49:38.418Z,30.00
2019-06-27T15:52:07.731Z,29.80
2019-06-27T15:54:37.084Z,29.80
2019-06-27T15:57:06.348Z,29.70
2019-06-27T15:59:35.674Z,29.70
2019-06-27T16:02:05.100Z,29.70
2019-06-27T16:04:34.784Z,29.50
2019-06-27T16:07:04.447Z,29.40
2019-06-27T16:09:33.811Z,29.40
2019-06-27T16:12:03.106Z,29.40
2019-06-27T16:14:32.445Z,29.40
2019-06-27T16:17:01.746Z,29.30
2019-06-27T16:19:50.465Z,29.30
2019-06-27T16:22:19.811Z,29.30
2019-06-27T16:24:49.116Z,29.20
2019-06-27T16:27:18.368Z,29.10
2019-06-27T16:29:47.634Z,29.10
2019-06-27T16:32:16.859Z,29.20
2019-06-27T16:34:46.126Z,29.20
2019-06-27T16:37:15.403Z,29.20
2019-06-27T16:39:44.686Z,29.00
2019-06-27T16:42:14.032Z,28.90
2019-06-27T16:44:43.380Z,28.90
2019-06-27T16:47:12.760Z,28.80
2019-06-27T16:49:42.059Z,28.80
2019-06-27T16:52:11.275Z,28.80
2019-06-27T16:54:40.617Z,28.80
2019-06-27T16:57:10.073Z,28.70
2019-06-27T16:59:39.393Z,28.80
2019-06-27T17:02:08.644Z,28.80
2019-06-27T17:04:37.920Z,28.70
2019-06-27T17:07:07.261Z,28.70
2019-06-27T17:09:36.578Z,28.60
2019-06-27T17:12:06.078Z,28.50
2019-06-27T17:14:35.462Z,28.50
2019-06-27T17:17:04.767Z,28.40
2019-06-27T17:19:34.052Z,28.10
2019-06-27T17:22:09.491Z,28.00
2019-06-27T17:24:38.785Z,28.00
2019-06-27T17:27:08.040Z,27.90
2019-06-27T17:29:37.367Z,27.80
2019-06-27T17:32:06.959Z,27.70
2019-06-27T17:34:36.306Z,27.60
2019-06-27T17:37:05.567Z,27.50
2019-06-27T17:39:34.852Z,27.40
2019-06-27T17:42:04.219Z,27.40
2019-06-27T17:44:33.552Z,27.30
2019-06-27T17:47:02.855Z,27.20
2019-06-27T17:49:32.276Z,27.20
2019-06-27T17:52:01.637Z,27.30
2019-06-27T17:54:30.891Z,27.20
2019-06-27T17:57:00.167Z,27.10
2019-06-27T17:59:29.468Z,27.00
2019-06-27T18:01:58.797Z,27.00
2019-06-27T18:04:28.131Z,27.00
2019-06-27T18:07:12.965Z,27.20
2019-06-27T18:09:30.532Z,27.10
2019-06-27T18:11:59.985Z,27.00
2019-06-27T18:14:29.272Z,27.00
2019-06-27T18:16:58.625Z,27.00
2019-06-27T18:19:27.923Z,26.80
2019-06-27T18:21:57.207Z,26.70
2019-06-27T18:24:26.550Z,26.60
2019-06-27T18:26:55.792Z,26.60
2019-06-27T18:29:25.090Z,26.60
2019-06-27T18:31:54.458Z,26.60
2019-06-27T18:34:23.906Z,26.50
2019-06-27T18:36:53.224Z,26.50
2019-06-27T18:39:22.544Z,26.50
2019-06-27T18:41:51.815Z,26.40
2019-06-27T18:44:21.120Z,26.30
2019-06-27T18:46:51.560Z,26.30
2019-06-27T18:49:20.872Z,26.30
2019-06-27T18:51:50.175Z,26.30
2019-06-27T18:54:19.514Z,26.20
2019-06-27T18:56:48.945Z,26.10
2019-06-27T18:59:18.209Z,26.00
2019-06-27T19:01:47.878Z,25.90
2019-06-27T19:04:17.127Z,25.90
2019-06-27T19:06:46.436Z,25.70
2019-06-27T19:09:15.736Z,25.60
2019-06-27T19:11:45.069Z,25.60
2019-06-27T19:14:14.409Z,25.60
2019-06-27T19:16:43.914Z,25.50
2019-06-27T19:19:21.034Z,25.40
2019-06-27T19:21:54.848Z,25.30
2019-06-27T19:24:25.800Z,25.30
2019-06-27T19:26:57.070Z,25.20
2019-06-27T19:29:27.349Z,25.20
2019-06-27T19:31:56.680Z,25.20
2019-06-27T19:34:25.932Z,25.20
2019-06-27T19:36:55.328Z,25.20
2019-06-27T19:39:24.578Z,25.00
2019-06-27T19:41:56.988Z,25.00
2019-06-27T19:44:24.888Z,24.80
2019-06-27T19:46:54.350Z,24.80
2019-06-27T19:49:23.616Z,24.90
2019-06-27T19:51:52.931Z,24.80
2019-06-27T19:54:22.299Z,24.80
2019-06-27T19:56:51.634Z,24.90
2019-06-27T19:59:20.888Z,25.00
2019-06-27T20:01:50.194Z,24.80
2019-06-27T20:04:19.477Z,24.80
2019-06-27T20:06:48.753Z,24.60
2019-06-27T20:09:18.155Z,24.40
2019-06-27T20:11:47.499Z,24.40
2019-06-27T20:14:18.315Z,24.40
2019-06-27T20:16:47.825Z,24.50
2019-06-27T20:19:17.156Z,24.50
2019-06-27T20:21:46.595Z,24.50
2019-06-27T20:24:35.193Z,24.60
2019-06-27T20:27:04.547Z,24.50
2019-06-27T20:29:33.788Z,24.40
2019-06-27T20:32:03.068Z,24.40
2019-06-27T20:34:32.346Z,24.30
2019-06-27T20:37:01.603Z,24.30
2019-06-27T20:39:30.882Z,24.30
2019-06-27T20:42:00.164Z,24.20
2019-06-27T20:44:30.261Z,24.00
2019-06-27T20:46:59.608Z,23.80
2019-06-27T20:49:28.995Z,23.80
2019-06-27T20:51:58.270Z,23.80
2019-06-27T20:54:27.582Z,23.70
2019-06-27T20:57:09.341Z,23.70
2019-06-27T20:59:38.608Z,23.60
2019-06-27T21:02:07.866Z,23.50
2019-06-27T21:04:37.179Z,23.40
2019-06-27T21:07:09.728Z,23.40
2019-06-27T21:09:37.515Z,23.30
2019-06-27T21:12:06.900Z,23.20
2019-06-27T21:14:36.174Z,23.20
2019-06-27T21:17:05.594Z,23.40
2019-06-27T21:19:35.003Z,23.20
2019-06-27T21:22:04.306Z,23.10
2019-06-27T21:24:33.644Z,23.10
2019-06-27T21:27:03.026Z,23.10
2019-06-27T21:29:32.388Z,23.10
2019-06-27T21:32:01.832Z,23.10
2019-06-27T21:34:31.092Z,23.00
2019-06-27T21:37:00.354Z,23.10
2019-06-27T21:39:29.766Z,23.00
2019-06-27T21:41:59.085Z,22.90
2019-06-27T21:44:28.325Z,22.90
2019-06-27T21:46:57.652Z,22.80
2019-06-27T21:49:26.895Z,22.80
2019-06-27T21:51:56.240Z,22.80
2019-06-27T21:54:44.849Z,22.80
2019-06-27T21:57:14.307Z,22.80
2019-06-27T21:59:43.795Z,22.80
2019-06-27T22:02:13.167Z,22.80
2019-06-27T22:04:42.500Z,22.70
2019-06-27T22:07:11.740Z,22.70
2019-06-27T22:09:41.005Z,22.60
2019-06-27T22:12:10.303Z,22.50
2019-06-27T22:14:39.581Z,22.50
2019-06-27T22:17:09.000Z,22.50
2019-06-27T22:19:38.425Z,22.20
2019-06-27T22:22:07.689Z,22.20
2019-06-27T22:24:36.986Z,22.00
2019-06-27T22:27:06.325Z,22.10
2019-06-27T22:29:36.656Z,22.10
2019-06-27T22:32:05.991Z,22.00
2019-06-27T22:34:35.310Z,22.00
2019-06-27T22:37:05.923Z,21.80
2019-06-27T22:39:52.776Z,21.90
2019-06-27T22:42:40.096Z,21.90
2019-06-27T22:45:28.459Z,22.00
2019-06-27T22:48:12.550Z,21.90
2019-06-27T22:50:52.472Z,21.70
2019-06-27T22:53:23.508Z,21.70
2019-06-27T22:55:54.007Z,21.70
2019-06-27T22:58:23.335Z,21.60
2019-06-27T23:00:52.587Z,21.60
2019-06-27T23:03:41.175Z,21.30
2019-06-27T23:06:10.431Z,21.30
2019-06-27T23:08:43.313Z,21.30
2019-06-27T23:11:12.725Z,21.40
2019-06-27T23:13:41.962Z,21.40
2019-06-27T23:16:11.228Z,21.30
2019-06-27T23:18:40.545Z,21.30
2019-06-27T23:21:09.923Z,21.20
2019-06-27T23:23:39.268Z,21.20
2019-06-27T23:26:08.586Z,21.40
2019-06-27T23:28:37.874Z,21.40
2019-06-27T23:31:07.187Z,21.50
2019-06-27T23:33:36.578Z,21.40
2019-06-27T23:36:05.857Z,21.40
2019-06-27T23:38:35.173Z,21.30
2019-06-27T23:41:04.403Z,21.30
2019-06-27T23:43:33.668Z,21.40
2019-06-27T23:46:02.895Z,21.40
2019-06-27T23:48:32.199Z,21.30
2019-06-27T23:51:01.440Z,21.30
2019-06-27T23:53:30.702Z,21.30
2019-06-27T23:55:59.953Z,21.40
2019-06-27T23:58:29.206Z,21.30
